createdAt,value
2023-04-11T00:01:30.138Z,8.70
2023-04-11T00:03:59.690Z,9.34
2023-04-11T00:06:28.119Z,9.80
2023-04-11T00:08:57.130Z,10.11
2023-04-11T00:11:25.430Z,10.31
2023-04-11T00:13:58.884Z,10.31
2023-04-11T00:16:26.848Z,9.63
2023-04-11T00:18:57.479Z,8.89
2023-04-11T00:21:26.149Z,8.32
2023-04-11T00:23:54.843Z,8.06
2023-04-11T00:26:22.714Z,8.54
2023-04-11T00:28:50.784Z,9.16
2023-04-11T00:31:18.673Z,9.61
2023-04-11T00:33:46.527Z,9.92
2023-04-11T00:36:14.447Z,10.16
2023-04-11T00:38:42.454Z,10.35
2023-04-11T00:41:11.121Z,10.35
2023-04-11T00:43:39.066Z,9.74
2023-04-11T00:46:09.994Z,9.01
2023-04-11T00:48:38.170Z,8.37
2023-04-11T00:51:06.458Z,7.99
2023-04-11T00:53:37.814Z,8.36
2023-04-11T00:56:06.877Z,8.94
2023-04-11T00:58:37.726Z,9.39
2023-04-11T01:01:09.325Z,9.74
2023-04-11T01:03:39.985Z,10.07
2023-04-11T01:06:14.394Z,10.40
2023-04-11T01:08:44.261Z,10.69
2023-04-11T01:11:13.735Z,10.73
2023-04-11T01:13:42.739Z,10.05
2023-04-11T01:16:11.440Z,9.31
2023-04-11T01:18:39.347Z,8.69
2023-04-11T01:21:07.865Z,8.17
2023-04-11T01:23:35.737Z,7.86
2023-04-11T01:26:03.693Z,8.27
2023-04-11T01:28:31.510Z,8.84
2023-04-11T01:30:59.334Z,9.31
2023-04-11T01:33:27.541Z,9.73
2023-04-11T01:35:55.475Z,10.11
2023-04-11T01:38:23.351Z,10.38
2023-04-11T01:40:52.925Z,10.39
2023-04-11T01:43:21.108Z,9.66
2023-04-11T01:45:49.112Z,8.84
2023-04-11T01:48:17.101Z,8.22
2023-04-11T01:50:44.975Z,7.88
2023-04-11T01:53:12.814Z,8.25
2023-04-11T01:55:40.644Z,8.71
2023-04-11T01:58:08.503Z,9.14
2023-04-11T02:00:37.212Z,9.53
2023-04-11T02:03:05.385Z,9.87
2023-04-11T02:05:33.721Z,10.18
2023-04-11T02:08:01.712Z,10.29
2023-04-11T02:10:29.603Z,9.65
2023-04-11T02:12:57.570Z,8.85
2023-04-11T02:15:25.470Z,8.22
2023-04-11T02:17:54.338Z,7.89
2023-04-11T02:20:23.445Z,8.37
2023-04-11T02:22:51.288Z,9.04
2023-04-11T02:25:19.276Z,9.53
2023-04-11T02:27:47.144Z,9.86
2023-04-11T02:30:15.014Z,10.10
2023-04-11T02:32:42.873Z,10.33
2023-04-11T02:35:11.021Z,10.53
2023-04-11T02:37:38.955Z,10.48
2023-04-11T02:40:08.222Z,9.68
2023-04-11T02:42:36.700Z,8.81
2023-04-11T02:45:05.068Z,8.16
2023-04-11T02:47:33.038Z,7.79
2023-04-11T02:50:00.925Z,8.17
2023-04-11T02:52:28.749Z,8.77
2023-04-11T02:54:56.653Z,9.25
2023-04-11T02:57:24.709Z,9.57
2023-04-11T02:59:52.598Z,9.76
2023-04-11T03:02:21.267Z,9.86
2023-04-11T03:04:49.401Z,9.75
2023-04-11T03:07:17.260Z,9.00
2023-04-11T03:09:45.213Z,8.18
2023-04-11T03:12:13.181Z,7.63
2023-04-11T03:14:41.052Z,7.86
2023-04-11T03:17:08.862Z,8.41
2023-04-11T03:19:36.638Z,8.86
2023-04-11T03:22:05.739Z,9.14
2023-04-11T03:24:33.756Z,9.28
2023-04-11T03:27:02.117Z,9.43
2023-04-11T03:29:30.014Z,9.60
2023-04-11T03:31:58.215Z,9.73
2023-04-11T03:34:27.160Z,9.74
2023-04-11T03:36:55.034Z,9.10
2023-04-11T03:39:22.935Z,8.35
2023-04-11T03:41:51.154Z,7.77
2023-04-11T03:44:18.980Z,7.45
2023-04-11T03:46:46.909Z,7.91
2023-04-11T03:49:14.699Z,8.54
2023-04-11T03:51:42.556Z,8.98
2023-04-11T03:54:10.412Z,9.27
2023-04-11T03:56:38.237Z,9.52
2023-04-11T03:59:06.118Z,9.68
2023-04-11T04:01:34.026Z,9.63
2023-04-11T04:04:02.466Z,8.91
2023-04-11T04:06:31.016Z,8.12
2023-04-11T04:08:59.916Z,7.63
2023-04-11T04:11:27.787Z,7.94
2023-04-11T04:13:56.027Z,8.51
2023-04-11T04:16:24.260Z,9.02
2023-04-11T04:18:52.091Z,9.44
2023-04-11T04:21:19.931Z,9.79
2023-04-11T04:23:47.934Z,10.10
2023-04-11T04:26:16.621Z,10.24
2023-04-11T04:28:48.005Z,9.76
2023-04-11T04:31:22.253Z,9.31
2023-04-11T04:33:50.141Z,9.21
2023-04-11T04:36:18.125Z,9.20
2023-04-11T04:38:48.111Z,9.30
2023-04-11T04:41:16.047Z,9.50
2023-04-11T04:43:44.216Z,9.58
2023-04-11T04:46:12.197Z,9.67
2023-04-11T04:48:40.548Z,9.89
2023-04-11T04:51:08.565Z,10.31
2023-04-11T04:53:38.899Z,10.79
2023-04-11T04:56:08.363Z,11.29
2023-04-11T04:58:36.626Z,11.69
2023-04-11T05:01:04.658Z,12.06
2023-04-11T05:03:35.079Z,12.48
2023-04-11T05:06:03.243Z,12.80
2023-04-11T05:08:31.065Z,12.97
2023-04-11T05:10:58.878Z,13.21
2023-04-11T05:13:26.798Z,13.47
2023-04-11T05:15:54.671Z,13.69
2023-04-11T05:18:22.522Z,13.89
2023-04-11T05:20:50.440Z,13.93
2023-04-11T05:23:18.328Z,13.69
2023-04-11T05:25:46.476Z,13.08
2023-04-11T05:28:14.716Z,12.30
2023-04-11T05:30:42.711Z,11.66
2023-04-11T05:33:13.019Z,11.24
2023-04-11T05:35:41.760Z,10.94
2023-04-11T05:38:10.114Z,10.67
2023-04-11T05:40:38.012Z,10.47
2023-04-11T05:43:06.147Z,10.31
2023-04-11T05:45:34.434Z,10.29
2023-04-11T05:48:04.267Z,10.95
2023-04-11T05:50:32.510Z,11.73
2023-04-11T05:53:00.494Z,12.37
2023-04-11T05:55:28.339Z,12.73
2023-04-11T05:57:56.219Z,12.40
2023-04-11T06:00:25.993Z,11.96
2023-04-11T06:02:55.376Z,11.65
2023-04-11T06:05:25.400Z,11.45
2023-04-11T06:07:57.070Z,11.44
2023-04-11T06:10:25.841Z,12.08
2023-04-11T06:12:54.195Z,12.87
2023-04-11T06:15:24.114Z,13.53
2023-04-11T06:17:52.283Z,13.79
2023-04-11T06:20:22.389Z,13.43
2023-04-11T06:22:53.791Z,12.88
2023-04-11T06:25:22.317Z,12.38
2023-04-11T06:27:50.864Z,11.99
2023-04-11T06:30:24.321Z,11.70
2023-04-11T06:32:52.607Z,11.66
2023-04-11T06:35:24.849Z,12.27
2023-04-11T06:37:52.819Z,12.93
2023-04-11T06:40:21.288Z,13.41
2023-04-11T06:42:49.303Z,13.98
2023-04-11T06:45:17.457Z,14.30
2023-04-11T06:47:45.433Z,13.93
2023-04-11T06:50:13.827Z,13.45
2023-04-11T06:52:41.765Z,13.05
2023-04-11T06:55:12.267Z,12.75
2023-04-11T06:57:40.061Z,12.50
2023-04-11T07:00:08.967Z,12.38
2023-04-11T07:02:37.271Z,12.82
2023-04-11T07:05:06.562Z,13.35
2023-04-11T07:07:34.411Z,13.80
2023-04-11T07:10:02.294Z,14.18
2023-04-11T07:12:30.648Z,14.31
2023-04-11T07:14:58.509Z,13.88
2023-04-11T07:17:26.605Z,13.38
2023-04-11T07:19:54.612Z,12.98
2023-04-11T07:22:23.828Z,12.80
2023-04-11T07:24:53.261Z,13.30
2023-04-11T07:27:23.793Z,14.03
2023-04-11T07:29:51.865Z,14.68
2023-04-11T07:32:20.268Z,15.11
2023-04-11T07:34:57.153Z,15.40
2023-04-11T07:37:30.564Z,15.20
2023-04-11T07:40:10.193Z,14.97
2023-04-11T07:42:38.168Z,14.83
2023-04-11T07:45:08.507Z,14.81
2023-04-11T07:47:36.398Z,14.83
2023-04-11T07:50:05.418Z,14.87
2023-04-11T07:52:33.782Z,14.95
2023-04-11T07:55:03.863Z,15.03
2023-04-11T07:57:32.573Z,15.09
2023-04-11T08:00:01.268Z,15.13
2023-04-11T08:02:29.347Z,15.18
2023-04-11T08:04:58.018Z,15.26
2023-04-11T08:07:26.777Z,15.34
2023-04-11T08:09:54.933Z,15.39
2023-04-11T08:12:27.002Z,15.41
2023-04-11T08:14:55.229Z,15.47
2023-04-11T08:17:28.499Z,15.53
2023-04-11T08:19:57.822Z,15.59
2023-04-11T08:22:26.808Z,15.63
2023-04-11T08:24:54.753Z,15.68
2023-04-11T08:27:22.876Z,15.70
2023-04-11T08:29:51.433Z,15.74
2023-04-11T08:32:19.527Z,15.84
2023-04-11T08:34:49.454Z,15.97
2023-04-11T08:37:17.434Z,16.10
2023-04-11T08:39:45.418Z,16.25
2023-04-11T08:42:32.944Z,16.36
2023-04-11T08:45:08.939Z,16.44
2023-04-11T08:47:37.397Z,16.55
2023-04-11T08:50:07.081Z,16.67
2023-04-11T08:52:39.277Z,16.67
2023-04-11T08:55:07.565Z,16.66
2023-04-11T08:57:38.229Z,16.63
2023-04-11T09:00:19.410Z,16.56
2023-04-11T09:02:58.237Z,16.53
2023-04-11T09:05:33.104Z,16.49
2023-04-11T09:08:06.797Z,16.40
2023-04-11T09:10:36.776Z,16.38
2023-04-11T09:13:34.095Z,16.43
2023-04-11T09:16:06.235Z,16.50
2023-04-11T09:18:41.370Z,16.47
2023-04-11T09:21:12.417Z,16.44
2023-04-11T09:23:41.248Z,16.52
2023-04-11T09:26:11.805Z,16.61
2023-04-11T09:28:45.706Z,16.74
2023-04-11T09:31:13.927Z,16.91
2023-04-11T09:33:58.901Z,17.07
2023-04-11T09:36:27.433Z,17.28
2023-04-11T09:38:56.805Z,17.39
2023-04-11T09:41:38.937Z,17.61
2023-04-11T09:44:06.799Z,17.95
2023-04-11T09:46:34.859Z,18.23
2023-04-11T09:49:03.537Z,18.40
2023-04-11T09:51:35.642Z,18.52
2023-04-11T09:54:05.796Z,18.57
2023-04-11T09:56:35.091Z,18.59
2023-04-11T09:59:05.182Z,18.51
2023-04-11T10:01:33.673Z,18.46
2023-04-11T10:04:01.899Z,18.40
2023-04-11T10:06:52.852Z,18.30
2023-04-11T10:09:22.046Z,18.21
2023-04-11T10:11:50.000Z,18.24
2023-04-11T10:14:36.726Z,18.31
2023-04-11T10:17:15.680Z,18.37
2023-04-11T10:19:45.588Z,18.33
2023-04-11T10:22:51.105Z,18.19
2023-04-11T10:25:22.036Z,18.09
2023-04-11T10:28:01.596Z,18.06
2023-04-11T10:30:42.310Z,18.08
2023-04-11T10:33:16.546Z,18.11
2023-04-11T10:36:02.300Z,18.12
2023-04-11T10:38:48.660Z,18.09
2023-04-11T10:41:22.966Z,18.11
2023-04-11T10:43:52.314Z,18.17
2023-04-11T10:46:23.589Z,18.18
2023-04-11T10:49:04.539Z,18.27
2023-04-11T10:51:34.498Z,18.39
2023-04-11T10:54:03.031Z,18.47
2023-04-11T10:56:46.296Z,18.50
2023-04-11T10:59:32.844Z,18.59
2023-04-11T11:02:02.877Z,18.78
2023-04-11T11:04:36.316Z,18.80
2023-04-11T11:07:07.359Z,18.71
2023-04-11T11:09:35.511Z,18.69
2023-04-11T11:12:15.246Z,18.65
2023-04-11T11:14:47.558Z,18.60
2023-04-11T11:17:17.288Z,18.59
2023-04-11T11:19:47.359Z,18.52
2023-04-11T11:22:26.171Z,18.32
2023-04-11T11:24:54.346Z,18.17
2023-04-11T11:27:25.352Z,18.12
2023-04-11T11:29:53.730Z,18.16
2023-04-11T11:32:33.035Z,18.15
2023-04-11T11:35:13.559Z,18.21
2023-04-11T11:37:42.127Z,18.36
2023-04-11T11:40:13.831Z,18.40
2023-04-11T11:42:42.101Z,18.37
2023-04-11T11:45:22.487Z,18.36
2023-04-11T11:47:50.940Z,18.37
2023-04-11T11:50:33.102Z,18.34
2023-04-11T11:53:16.015Z,18.26
2023-04-11T11:55:44.077Z,18.23
2023-04-11T11:58:12.197Z,18.31
2023-04-11T12:00:41.598Z,18.35
2023-04-11T12:03:10.985Z,18.32
2023-04-11T12:05:39.216Z,18.30
2023-04-11T12:08:07.947Z,18.27
2023-04-11T12:10:42.068Z,18.28
2023-04-11T12:13:20.102Z,18.33
2023-04-11T12:15:55.712Z,18.37
2023-04-11T12:18:26.426Z,18.31
2023-04-11T12:20:55.583Z,18.23
2023-04-11T12:23:23.832Z,18.31
2023-04-11T12:25:51.796Z,18.45
2023-04-11T12:28:20.224Z,18.54
2023-04-11T12:30:48.520Z,18.56
2023-04-11T12:33:16.594Z,18.60
2023-04-11T12:35:46.140Z,18.69
2023-04-11T12:38:17.434Z,18.71
2023-04-11T12:40:46.863Z,18.71
2023-04-11T12:43:15.062Z,18.72
2023-04-11T12:45:43.221Z,18.73
2023-04-11T12:48:11.512Z,18.81
2023-04-11T12:50:39.658Z,18.86
2023-04-11T12:53:07.592Z,18.89
2023-04-11T12:55:35.558Z,18.89
2023-04-11T12:58:03.959Z,18.89
2023-04-11T13:00:32.256Z,18.85
2023-04-11T13:03:04.921Z,18.77
2023-04-11T13:05:33.219Z,18.67
2023-04-11T13:08:01.692Z,18.49
2023-04-11T13:10:29.613Z,18.31
2023-04-11T13:13:00.565Z,18.16
2023-04-11T13:15:31.151Z,18.00
2023-04-11T13:17:59.300Z,17.89
2023-04-11T13:20:27.353Z,17.80
2023-04-11T13:22:55.456Z,17.76
2023-04-11T13:25:23.330Z,17.73
2023-04-11T13:27:51.347Z,17.70
2023-04-11T13:30:19.373Z,17.68
2023-04-11T13:32:47.276Z,17.65
2023-04-11T13:35:15.559Z,17.63
2023-04-11T13:37:43.425Z,17.61
2023-04-11T13:40:12.406Z,17.59
2023-04-11T13:42:40.843Z,17.54
2023-04-11T13:45:10.217Z,17.54
2023-04-11T13:47:38.857Z,17.52
2023-04-11T13:50:09.310Z,17.49
2023-04-11T13:52:37.605Z,17.47
2023-04-11T13:55:06.599Z,17.47
2023-04-11T13:57:34.545Z,17.44
2023-04-11T14:00:06.909Z,17.40
2023-04-11T14:02:34.931Z,17.35
2023-04-11T14:05:04.249Z,17.29
2023-04-11T14:07:32.242Z,17.23
2023-04-11T14:10:00.610Z,17.14
2023-04-11T14:12:28.920Z,17.08
2023-04-11T14:14:56.955Z,17.05
2023-04-11T14:17:25.094Z,16.99
2023-04-11T14:19:53.458Z,16.92
2023-04-11T14:22:21.838Z,16.86
2023-04-11T14:24:49.746Z,16.76
2023-04-11T14:27:17.687Z,16.68
2023-04-11T14:29:46.402Z,16.63
2023-04-11T14:32:14.541Z,16.60
2023-04-11T14:34:42.541Z,16.58
2023-04-11T14:37:10.644Z,16.56
2023-04-11T14:39:40.061Z,16.55
2023-04-11T14:42:09.155Z,16.53
2023-04-11T14:44:40.875Z,16.50
2023-04-11T14:47:09.295Z,16.46
2023-04-11T14:49:37.417Z,16.42
2023-04-11T14:52:05.644Z,16.38
2023-04-11T14:54:33.870Z,16.37
2023-04-11T14:57:02.677Z,16.36
2023-04-11T14:59:31.079Z,16.35
2023-04-11T15:01:59.416Z,16.34
2023-04-11T15:04:27.598Z,16.31
2023-04-11T15:06:55.553Z,16.24
2023-04-11T15:09:23.633Z,16.20
2023-04-11T15:11:51.729Z,16.12
2023-04-11T15:14:20.111Z,16.06
2023-04-11T15:16:48.058Z,16.04
2023-04-11T15:19:15.919Z,16.03
2023-04-11T15:21:46.303Z,16.05
2023-04-11T15:24:14.297Z,16.06
2023-04-11T15:26:47.433Z,16.03
2023-04-11T15:29:18.645Z,15.96
2023-04-11T15:31:46.845Z,15.91
2023-04-11T15:34:15.549Z,15.87
2023-04-11T15:36:45.268Z,15.85
2023-04-11T15:39:13.741Z,15.85
2023-04-11T15:41:50.810Z,15.85
2023-04-11T15:44:22.710Z,15.86
2023-04-11T15:46:59.117Z,15.88
2023-04-11T15:49:31.404Z,15.91
2023-04-11T15:52:02.238Z,15.93
2023-04-11T15:54:34.067Z,15.94
2023-04-11T15:57:02.499Z,15.92
2023-04-11T15:59:30.891Z,15.90
2023-04-11T16:01:59.304Z,15.89
2023-04-11T16:04:29.969Z,15.89
2023-04-11T16:06:58.499Z,15.88
2023-04-11T16:09:27.507Z,15.86
2023-04-11T16:11:56.881Z,15.85
2023-04-11T16:14:25.418Z,15.83
2023-04-11T16:16:53.760Z,15.81
2023-04-11T16:19:22.425Z,15.78
2023-04-11T16:21:50.685Z,15.74
2023-04-11T16:24:19.628Z,15.70
2023-04-11T16:26:51.353Z,15.68
2023-04-11T16:29:19.513Z,15.64
2023-04-11T16:31:48.745Z,15.58
2023-04-11T16:34:17.915Z,15.51
2023-04-11T16:36:49.085Z,15.47
2023-04-11T16:39:17.337Z,15.42
2023-04-11T16:41:46.154Z,15.37
2023-04-11T16:44:14.453Z,15.33
2023-04-11T16:46:43.104Z,15.29
2023-04-11T16:49:11.627Z,15.26
2023-04-11T16:51:40.806Z,15.23
2023-04-11T16:54:12.150Z,15.17
2023-04-11T16:56:40.876Z,15.00
2023-04-11T16:59:10.385Z,14.75
2023-04-11T17:01:38.412Z,14.46
2023-04-11T17:04:06.880Z,14.16
2023-04-11T17:06:35.563Z,13.91
2023-04-11T17:09:06.818Z,13.68
2023-04-11T17:11:37.955Z,13.45
2023-04-11T17:14:06.259Z,13.25
2023-04-11T17:16:34.214Z,13.07
2023-04-11T17:19:02.489Z,13.01
2023-04-11T17:21:32.096Z,13.44
2023-04-11T17:24:00.621Z,13.93
2023-04-11T17:26:28.745Z,14.34
2023-04-11T17:28:57.040Z,14.17
2023-04-11T17:31:27.724Z,13.64
2023-04-11T17:33:56.479Z,13.18
2023-04-11T17:36:25.215Z,12.82
2023-04-11T17:38:54.894Z,12.78
2023-04-11T17:41:23.363Z,13.24
2023-04-11T17:43:57.543Z,13.63
2023-04-11T17:46:26.235Z,13.85
2023-04-11T17:48:54.671Z,13.95
2023-04-11T17:51:23.289Z,14.05
2023-04-11T17:53:52.789Z,14.06
2023-04-11T17:56:21.369Z,14.01
2023-04-11T17:58:50.945Z,13.89
2023-04-11T18:01:20.526Z,13.85
2023-04-11T18:03:50.881Z,13.85
2023-04-11T18:06:19.609Z,13.85
2023-04-11T18:08:51.402Z,13.92
2023-04-11T18:11:20.167Z,14.02
2023-04-11T18:13:50.369Z,14.08
2023-04-11T18:16:19.049Z,14.19
2023-04-11T18:18:48.507Z,14.24
2023-04-11T18:21:17.050Z,14.36
2023-04-11T18:23:45.494Z,14.53
2023-04-11T18:26:16.596Z,14.69
2023-04-11T18:28:45.663Z,14.83
2023-04-11T18:31:21.033Z,14.93
2023-04-11T18:33:51.440Z,14.99
2023-04-11T18:36:22.959Z,15.08
2023-04-11T18:38:52.110Z,15.11
2023-04-11T18:41:21.061Z,14.94
2023-04-11T18:43:49.792Z,14.65
2023-04-11T18:51:09.723Z,14.29
2023-04-11T18:53:38.018Z,14.42
2023-04-11T18:56:09.316Z,14.41
2023-04-11T18:58:45.528Z,14.40
2023-04-11T19:01:17.027Z,14.49
2023-04-11T19:03:46.381Z,14.66
2023-04-11T19:06:15.681Z,14.86
2023-04-11T19:08:43.726Z,14.99
2023-04-11T19:11:11.716Z,15.25
2023-04-11T19:13:41.319Z,15.65
2023-04-11T19:16:09.888Z,15.85
2023-04-11T19:18:41.360Z,15.91
2023-04-11T19:21:09.499Z,15.78
2023-04-11T19:23:37.856Z,14.82
2023-04-11T19:26:06.807Z,13.75
2023-04-11T19:28:34.840Z,13.05
2023-04-11T19:31:08.659Z,13.21
2023-04-11T19:33:38.973Z,13.52
2023-04-11T19:36:07.413Z,13.76
2023-04-11T19:38:36.355Z,13.95
2023-04-11T19:41:19.738Z,14.03
2023-04-11T19:43:48.131Z,14.01
2023-04-11T19:46:17.752Z,14.00
2023-04-11T19:48:46.667Z,13.97
2023-04-11T19:51:15.024Z,13.86
2023-04-11T19:53:43.380Z,13.76
2023-04-11T19:56:11.736Z,13.70
2023-04-11T19:58:40.141Z,13.61
2023-04-11T20:01:09.866Z,13.50
2023-04-11T20:03:38.167Z,13.34
2023-04-11T20:06:07.796Z,13.20
2023-04-11T20:08:38.409Z,13.12
2023-04-11T20:11:06.704Z,13.00
2023-04-11T20:13:36.150Z,12.86
2023-04-11T20:16:08.964Z,12.87
2023-04-11T20:18:37.239Z,12.91
2023-04-11T20:21:07.985Z,12.96
2023-04-11T20:23:37.305Z,12.98
2023-04-11T20:26:05.616Z,13.00
2023-04-11T20:28:33.693Z,12.91
2023-04-11T20:31:04.476Z,12.75
2023-04-11T20:33:32.765Z,12.65
2023-04-11T20:36:03.059Z,12.65
2023-04-11T20:38:31.461Z,12.69
2023-04-11T20:41:03.966Z,12.75
2023-04-11T20:43:32.067Z,12.77
2023-04-11T20:46:00.150Z,12.84
2023-04-11T20:48:30.778Z,12.84
2023-04-11T20:51:02.006Z,12.87
2023-04-11T20:53:30.088Z,12.91
2023-04-11T20:55:58.004Z,12.91
2023-04-11T20:58:27.823Z,12.99
2023-04-11T21:00:57.385Z,13.12
2023-04-11T21:03:30.361Z,13.15
2023-04-11T21:05:59.229Z,13.10
2023-04-11T21:08:27.374Z,13.07
2023-04-11T21:10:55.447Z,13.04
2023-04-11T21:13:23.411Z,13.07
2023-04-11T21:15:51.346Z,13.06
2023-04-11T21:18:19.267Z,13.10
2023-04-11T21:20:47.241Z,13.22
2023-04-11T21:23:15.251Z,13.31
2023-04-11T21:25:43.351Z,13.36
2023-04-11T21:28:11.403Z,13.41
2023-04-11T21:30:39.772Z,13.45
2023-04-11T21:33:07.947Z,13.48
2023-04-11T21:35:36.074Z,13.50
2023-04-11T21:38:04.011Z,13.51
2023-04-11T21:40:31.974Z,13.52
2023-04-11T21:43:00.234Z,13.51
2023-04-11T21:45:28.804Z,13.51
2023-04-11T21:47:56.778Z,13.51
2023-04-11T21:50:24.743Z,13.54
2023-04-11T21:52:53.941Z,13.48
2023-04-11T21:55:21.855Z,13.24
2023-04-11T21:57:49.856Z,13.16
2023-04-11T22:00:18.273Z,13.18
2023-04-11T22:02:46.414Z,13.06
2023-04-11T22:05:14.739Z,12.90
2023-04-11T22:07:49.201Z,12.84
2023-04-11T22:10:23.879Z,12.80
2023-04-11T22:12:54.610Z,12.72
2023-04-11T22:15:24.286Z,12.68
2023-04-11T22:17:54.567Z,12.66
2023-04-11T22:20:22.641Z,12.54
2023-04-11T22:22:50.400Z,12.50
2023-04-11T22:25:18.471Z,12.52
2023-04-11T22:27:46.297Z,12.57
2023-04-11T22:30:14.898Z,12.61
2023-04-11T22:32:42.737Z,12.57
2023-04-11T22:35:10.805Z,12.51
2023-04-11T22:37:38.607Z,12.48
2023-04-11T22:40:11.297Z,12.55
2023-04-11T22:42:40.093Z,12.62
2023-04-11T22:45:09.147Z,12.66
2023-04-11T22:47:38.168Z,12.64
2023-04-11T22:50:06.691Z,12.60
2023-04-11T22:52:35.712Z,12.59
2023-04-11T22:55:04.989Z,12.58
2023-04-11T22:57:32.699Z,12.57
2023-04-11T23:00:02.991Z,12.64
2023-04-11T23:02:33.764Z,12.75
2023-04-11T23:05:03.403Z,12.83
2023-04-11T23:07:33.041Z,12.84
2023-04-11T23:10:06.166Z,12.86
2023-04-11T23:12:33.988Z,12.89
2023-04-11T23:15:03.402Z,12.90
2023-04-11T23:17:31.229Z,12.83
2023-04-11T23:20:01.938Z,12.77
2023-04-11T23:22:29.795Z,12.68
2023-04-11T23:24:58.132Z,12.64
2023-04-11T23:27:25.953Z,12.70
2023-04-11T23:29:54.354Z,12.74
2023-04-11T23:32:23.176Z,12.73
2023-04-11T23:34:51.006Z,12.76
2023-04-11T23:37:19.511Z,12.81
2023-04-11T23:39:47.642Z,12.89
2023-04-11T23:42:15.481Z,12.97
2023-04-11T23:44:43.223Z,13.06
2023-04-11T23:47:11.129Z,13.17
2023-04-11T23:49:38.939Z,13.26
2023-04-11T23:52:07.669Z,13.30
2023-04-11T23:54:36.674Z,13.39
2023-04-11T23:57:04.808Z,13.40
2023-04-11T23:59:32.690Z,13.35
